createdAt,value
2022-12-07T00:00:39.777Z,90.19
2022-12-07T00:01:39.883Z,89.67
2022-12-07T00:02:39.770Z,89.43
2022-12-07T00:03:39.715Z,88.95
2022-12-07T00:04:39.627Z,89.62
2022-12-07T00:05:39.586Z,89.72
2022-12-07T00:06:39.550Z,90.00
2022-12-07T00:07:39.559Z,89.72
2022-12-07T00:08:39.468Z,89.81
2022-12-07T00:09:39.436Z,89.90
2022-12-07T00:10:39.391Z,89.72
2022-12-07T00:11:39.357Z,89.90
2022-12-07T00:12:39.342Z,90.85
2022-12-07T00:13:39.284Z,90.76
2022-12-07T00:14:39.233Z,90.47
2022-12-07T00:15:39.200Z,90.85
2022-12-07T00:16:39.220Z,90.66
2022-12-07T00:17:39.152Z,90.28
2022-12-07T00:18:39.102Z,90.47
2022-12-07T00:19:39.088Z,90.28
2022-12-07T00:20:39.002Z,90.28
2022-12-07T00:21:38.971Z,90.38
2022-12-07T00:22:38.924Z,90.47
2022-12-07T00:23:38.897Z,90.47
2022-12-07T00:24:38.864Z,90.28
2022-12-07T00:25:38.810Z,90.28
2022-12-07T00:26:38.777Z,90.33
2022-12-07T00:27:38.733Z,90.47
2022-12-07T00:28:38.691Z,90.28
2022-12-07T00:29:38.652Z,90.09
2022-12-07T00:30:38.610Z,90.85
2022-12-07T00:31:38.600Z,90.47
2022-12-07T00:32:38.535Z,90.85
2022-12-07T00:33:38.499Z,90.71
2022-12-07T00:34:38.455Z,90.28
2022-12-07T00:35:38.415Z,90.85
2022-12-07T00:36:38.408Z,90.38
2022-12-07T00:37:38.346Z,90.85
2022-12-07T00:38:38.300Z,91.24
2022-12-07T00:39:38.260Z,91.04
2022-12-07T00:40:38.232Z,90.57
2022-12-07T00:41:38.180Z,91.04
2022-12-07T00:42:38.139Z,91.00
2022-12-07T00:43:38.100Z,90.52
2022-12-07T00:44:38.067Z,90.24
2022-12-07T00:45:38.085Z,90.47
2022-12-07T00:46:37.985Z,90.09
2022-12-07T00:47:37.949Z,90.19
2022-12-07T00:48:37.906Z,89.76
2022-12-07T00:49:37.866Z,89.67
2022-12-07T00:50:37.826Z,89.72
2022-12-07T00:51:37.791Z,89.72
2022-12-07T00:52:37.757Z,89.90
2022-12-07T00:53:41.361Z,89.81
2022-12-07T00:54:37.692Z,90.00
2022-12-07T00:55:37.638Z,90.28
2022-12-07T00:56:37.594Z,90.38
2022-12-07T00:57:37.559Z,90.38
2022-12-07T00:58:37.527Z,89.95
2022-12-07T00:59:37.485Z,89.86
2022-12-07T01:00:37.436Z,90.05
2022-12-07T01:01:37.561Z,89.67
2022-12-07T01:02:37.358Z,89.58
2022-12-07T01:03:37.443Z,89.72
2022-12-07T01:04:37.281Z,89.72
2022-12-07T01:05:37.245Z,89.62
2022-12-07T01:06:37.207Z,90.57
2022-12-07T01:07:37.190Z,90.28
2022-12-07T01:08:37.134Z,90.14
2022-12-07T01:09:37.095Z,89.76
2022-12-07T01:10:37.049Z,89.29
2022-12-07T01:11:37.013Z,89.67
2022-12-07T01:12:36.966Z,89.29
2022-12-07T01:13:36.933Z,88.86
2022-12-07T01:14:36.889Z,89.67
2022-12-07T01:15:36.852Z,89.00
2022-12-07T01:16:36.890Z,89.29
2022-12-07T01:17:36.774Z,88.81
2022-12-07T01:18:36.732Z,88.86
2022-12-07T01:19:36.691Z,89.00
2022-12-07T01:20:36.659Z,89.20
2022-12-07T01:21:36.617Z,88.91
2022-12-07T01:22:36.575Z,88.53
2022-12-07T01:23:36.541Z,89.39
2022-12-07T01:24:36.498Z,88.81
2022-12-07T01:25:36.463Z,88.53
2022-12-07T01:26:36.422Z,88.72
2022-12-07T01:27:36.386Z,88.72
2022-12-07T01:28:36.344Z,89.29
2022-12-07T01:29:36.303Z,89.29
2022-12-07T01:30:36.345Z,89.39
2022-12-07T01:31:36.229Z,89.24
2022-12-07T01:32:36.186Z,88.91
2022-12-07T01:33:36.151Z,88.72
2022-12-07T01:34:36.109Z,88.48
2022-12-07T01:35:36.083Z,88.95
2022-12-07T01:36:36.035Z,88.91
2022-12-07T01:37:35.995Z,88.76
2022-12-07T01:38:35.954Z,88.67
2022-12-07T01:39:35.914Z,89.24
2022-12-07T01:40:35.879Z,88.57
2022-12-07T01:41:35.841Z,89.33
2022-12-07T01:42:35.797Z,89.62
2022-12-07T01:43:35.767Z,89.81
2022-12-07T01:44:35.715Z,89.43
2022-12-07T01:45:35.680Z,89.81
2022-12-07T01:46:35.790Z,89.62
2022-12-07T01:47:35.600Z,89.72
2022-12-07T01:48:35.595Z,89.62
2022-12-07T01:49:35.526Z,89.43
2022-12-07T01:50:35.485Z,89.81
2022-12-07T01:51:35.486Z,89.05
2022-12-07T01:52:35.410Z,88.62
2022-12-07T01:53:35.371Z,88.43
2022-12-07T01:54:35.324Z,88.91
2022-12-07T01:55:35.286Z,88.81
2022-12-07T01:56:35.253Z,88.95
2022-12-07T01:57:35.213Z,89.20
2022-12-07T01:58:35.183Z,89.14
2022-12-07T01:59:35.139Z,89.24
2022-12-07T02:00:35.094Z,89.05
2022-12-07T02:01:35.088Z,89.81
2022-12-07T02:02:35.097Z,89.81
2022-12-07T02:03:34.981Z,89.53
2022-12-07T02:04:34.933Z,90.19
2022-12-07T02:05:34.897Z,89.90
2022-12-07T02:06:34.862Z,89.95
2022-12-07T02:07:34.873Z,90.09
2022-12-07T02:08:34.780Z,89.81
2022-12-07T02:09:34.742Z,89.62
2022-12-07T02:10:34.702Z,90.28
2022-12-07T02:11:34.667Z,90.00
2022-12-07T02:12:34.627Z,89.53
2022-12-07T02:13:34.593Z,90.09
2022-12-07T02:14:34.544Z,89.76
2022-12-07T02:15:34.586Z,89.90
2022-12-07T02:16:34.485Z,89.72
2022-12-07T02:17:34.432Z,89.43
2022-12-07T02:18:34.385Z,89.05
2022-12-07T02:19:34.354Z,88.91
2022-12-07T02:20:34.327Z,88.53
2022-12-07T02:21:34.273Z,88.57
2022-12-07T02:22:34.242Z,88.67
2022-12-07T02:23:34.199Z,88.95
2022-12-07T02:24:34.157Z,88.76
2022-12-07T02:25:34.122Z,89.24
2022-12-07T02:26:34.080Z,88.76
2022-12-07T02:27:34.046Z,88.48
2022-12-07T02:28:33.998Z,89.05
2022-12-07T02:29:33.964Z,88.76
2022-12-07T02:30:33.924Z,88.86
2022-12-07T02:31:33.939Z,88.67
2022-12-07T02:32:33.841Z,88.86
2022-12-07T02:33:33.812Z,89.00
2022-12-07T02:34:33.762Z,88.39
2022-12-07T02:35:33.729Z,87.68
2022-12-07T02:36:33.681Z,87.91
2022-12-07T02:37:33.647Z,88.57
2022-12-07T02:38:33.607Z,88.20
2022-12-07T02:39:33.570Z,88.20
2022-12-07T02:40:33.527Z,88.10
2022-12-07T02:41:33.493Z,87.91
2022-12-07T02:42:33.451Z,88.01
2022-12-07T02:43:33.412Z,88.20
2022-12-07T02:44:33.377Z,88.57
2022-12-07T02:45:33.339Z,87.96
2022-12-07T02:46:33.341Z,87.91
2022-12-07T02:47:33.256Z,88.01
2022-12-07T02:48:33.234Z,88.10
2022-12-07T02:49:33.179Z,88.01
2022-12-07T02:50:33.137Z,87.62
2022-12-07T02:51:33.102Z,87.49
2022-12-07T02:52:33.078Z,87.43
2022-12-07T02:53:33.036Z,87.39
2022-12-07T02:54:32.982Z,87.91
2022-12-07T02:55:32.941Z,88.10
2022-12-07T02:56:32.910Z,88.20
2022-12-07T02:57:32.873Z,88.29
2022-12-07T02:58:32.825Z,88.01
2022-12-07T02:59:32.785Z,88.20
2022-12-07T03:00:32.752Z,88.57
2022-12-07T03:01:32.795Z,88.48
2022-12-07T03:02:32.733Z,88.48
2022-12-07T03:03:32.637Z,88.39
2022-12-07T03:04:32.594Z,88.39
2022-12-07T03:05:32.552Z,88.57
2022-12-07T03:06:32.527Z,88.15
2022-12-07T03:07:32.483Z,88.01
2022-12-07T03:08:32.436Z,88.20
2022-12-07T03:09:32.400Z,88.20
2022-12-07T03:10:32.359Z,88.67
2022-12-07T03:11:32.321Z,88.86
2022-12-07T03:12:32.298Z,88.48
2022-12-07T03:13:32.246Z,88.29
2022-12-07T03:14:32.203Z,88.15
2022-12-07T03:15:32.211Z,87.87
2022-12-07T03:16:32.133Z,87.91
2022-12-07T03:17:32.091Z,88.57
2022-12-07T03:18:32.045Z,88.57
2022-12-07T03:19:32.008Z,88.95
2022-12-07T03:20:31.967Z,88.86
2022-12-07T03:21:31.931Z,88.67
2022-12-07T03:22:31.889Z,89.14
2022-12-07T03:23:31.858Z,88.95
2022-12-07T03:24:31.812Z,88.76
2022-12-07T03:25:31.774Z,88.86
2022-12-07T03:26:31.740Z,88.95
2022-12-07T03:27:31.695Z,88.76
2022-12-07T03:28:31.655Z,89.24
2022-12-07T03:29:31.620Z,89.43
2022-12-07T03:30:31.577Z,89.24
2022-12-07T03:31:31.577Z,89.05
2022-12-07T03:32:31.498Z,89.05
2022-12-07T03:33:31.470Z,89.14
2022-12-07T03:34:31.425Z,89.43
2022-12-07T03:35:31.382Z,88.15
2022-12-07T03:36:31.346Z,88.29
2022-12-07T03:37:31.303Z,88.39
2022-12-07T03:38:31.266Z,88.48
2022-12-07T03:39:31.229Z,88.48
2022-12-07T03:40:31.186Z,88.48
2022-12-07T03:41:31.151Z,88.39
2022-12-07T03:42:31.113Z,88.95
2022-12-07T03:43:31.071Z,88.67
2022-12-07T03:44:31.033Z,88.86
2022-12-07T03:45:30.989Z,89.33
2022-12-07T03:46:30.980Z,88.53
2022-12-07T03:47:30.915Z,88.01
2022-12-07T03:48:30.879Z,88.72
2022-12-07T03:49:30.839Z,87.91
2022-12-07T03:50:30.826Z,88.20
2022-12-07T03:51:30.761Z,89.14
2022-12-07T03:52:30.722Z,88.43
2022-12-07T03:53:30.695Z,88.53
2022-12-07T03:54:30.651Z,88.62
2022-12-07T03:55:30.601Z,88.39
2022-12-07T03:56:30.560Z,88.48
2022-12-07T03:57:30.524Z,87.77
2022-12-07T03:58:30.489Z,88.24
2022-12-07T03:59:30.443Z,87.91
2022-12-07T04:00:30.405Z,87.96
2022-12-07T04:01:30.440Z,87.87
2022-12-07T04:02:30.339Z,88.20
2022-12-07T04:03:30.290Z,88.39
2022-12-07T04:04:30.260Z,88.76
2022-12-07T04:05:30.211Z,88.67
2022-12-07T04:06:30.174Z,89.14
2022-12-07T04:07:30.131Z,89.05
2022-12-07T04:08:30.099Z,89.43
2022-12-07T04:09:30.058Z,89.05
2022-12-07T04:10:30.028Z,89.05
2022-12-07T04:11:29.979Z,88.95
2022-12-07T04:12:29.938Z,89.53
2022-12-07T04:13:29.899Z,89.33
2022-12-07T04:14:29.863Z,89.24
2022-12-07T04:15:29.821Z,89.33
2022-12-07T04:16:29.850Z,89.72
2022-12-07T04:17:29.746Z,89.72
2022-12-07T04:18:29.701Z,89.95
2022-12-07T04:19:29.672Z,89.67
2022-12-07T04:20:29.632Z,89.72
2022-12-07T04:21:29.669Z,89.90
2022-12-07T04:22:29.550Z,89.81
2022-12-07T04:23:29.512Z,90.57
2022-12-07T04:24:29.469Z,90.57
2022-12-07T04:25:29.429Z,90.05
2022-12-07T04:26:29.397Z,89.20
2022-12-07T04:27:29.353Z,89.43
2022-12-07T04:28:29.309Z,89.67
2022-12-07T04:29:29.276Z,88.72
2022-12-07T04:30:29.235Z,89.10
2022-12-07T04:31:29.259Z,89.05
2022-12-07T04:32:29.158Z,89.72
2022-12-07T04:33:29.120Z,89.58
2022-12-07T04:34:29.091Z,89.20
2022-12-07T04:35:29.038Z,89.10
2022-12-07T04:36:29.009Z,89.00
2022-12-07T04:37:28.967Z,89.86
2022-12-07T04:38:28.926Z,89.29
2022-12-07T04:39:28.885Z,88.91
2022-12-07T04:40:28.843Z,89.29
2022-12-07T04:41:28.806Z,88.72
2022-12-07T04:42:28.772Z,89.20
2022-12-07T04:43:28.738Z,88.91
2022-12-07T04:44:28.686Z,88.91
2022-12-07T04:45:28.651Z,89.05
2022-12-07T04:46:28.670Z,89.58
2022-12-07T04:47:28.574Z,89.86
2022-12-07T04:48:28.536Z,89.76
2022-12-07T04:49:28.494Z,88.81
2022-12-07T04:50:28.456Z,89.00
2022-12-07T04:51:28.419Z,88.72
2022-12-07T04:52:28.381Z,88.72
2022-12-07T04:53:28.340Z,89.10
2022-12-07T04:54:28.300Z,89.86
2022-12-07T04:55:28.260Z,89.48
2022-12-07T04:56:28.221Z,89.86
2022-12-07T04:57:28.181Z,89.67
2022-12-07T04:58:28.140Z,89.53
2022-12-07T04:59:28.113Z,89.90
2022-12-07T05:00:28.098Z,90.43
2022-12-07T05:01:28.026Z,89.95
2022-12-07T05:02:28.108Z,89.76
2022-12-07T05:03:27.955Z,89.67
2022-12-07T05:04:27.910Z,89.67
2022-12-07T05:05:27.868Z,89.67
2022-12-07T05:06:27.830Z,89.86
2022-12-07T05:07:27.788Z,89.48
2022-12-07T05:08:27.755Z,89.58
2022-12-07T05:09:27.713Z,89.58
2022-12-07T05:10:27.672Z,89.48
2022-12-07T05:11:27.634Z,89.00
2022-12-07T05:12:27.593Z,89.10
2022-12-07T05:13:27.564Z,89.39
2022-12-07T05:14:27.522Z,89.95
2022-12-07T05:15:27.479Z,89.29
2022-12-07T05:16:27.504Z,89.10
2022-12-07T05:17:27.399Z,88.81
2022-12-07T05:18:27.363Z,89.10
2022-12-07T05:19:27.320Z,89.86
2022-12-07T05:20:27.285Z,89.76
2022-12-07T05:21:27.253Z,89.76
2022-12-07T05:22:27.209Z,89.76
2022-12-07T05:23:27.166Z,89.76
2022-12-07T05:24:27.125Z,89.29
2022-12-07T05:25:27.096Z,89.95
2022-12-07T05:26:27.049Z,90.05
2022-12-07T05:27:27.007Z,89.48
2022-12-07T05:28:26.974Z,89.67
2022-12-07T05:29:26.937Z,89.95
2022-12-07T05:30:26.897Z,90.05
2022-12-07T05:31:26.912Z,89.86
2022-12-07T05:32:26.816Z,89.86
2022-12-07T05:33:26.776Z,89.76
2022-12-07T05:34:26.740Z,89.76
2022-12-07T05:35:26.697Z,89.72
2022-12-07T05:36:26.660Z,89.72
2022-12-07T05:37:26.619Z,89.67
2022-12-07T05:38:26.581Z,89.67
2022-12-07T05:39:26.539Z,89.76
2022-12-07T05:40:26.497Z,89.95
2022-12-07T05:41:26.493Z,89.67
2022-12-07T05:42:26.420Z,89.67
2022-12-07T05:43:26.383Z,89.58
2022-12-07T05:44:26.342Z,89.58
2022-12-07T05:45:26.339Z,89.39
2022-12-07T05:46:26.262Z,89.48
2022-12-07T05:47:26.228Z,89.00
2022-12-07T05:48:26.198Z,89.39
2022-12-07T05:49:26.150Z,89.58
2022-12-07T05:50:26.107Z,89.10
2022-12-07T05:51:26.068Z,89.10
2022-12-07T05:52:26.033Z,89.00
2022-12-07T05:53:25.991Z,89.00
2022-12-07T05:54:25.945Z,89.81
2022-12-07T05:55:25.916Z,89.67
2022-12-07T05:56:25.879Z,89.81
2022-12-07T05:57:25.834Z,89.33
2022-12-07T05:58:25.791Z,90.05
2022-12-07T05:59:25.763Z,89.76
2022-12-07T06:00:25.714Z,89.67
2022-12-07T06:01:25.682Z,89.39
2022-12-07T06:02:25.690Z,89.39
2022-12-07T06:03:25.683Z,89.58
2022-12-07T06:04:25.561Z,89.58
2022-12-07T06:05:25.525Z,90.33
2022-12-07T06:06:25.569Z,89.67
2022-12-07T06:07:25.436Z,89.48
2022-12-07T06:08:25.448Z,89.76
2022-12-07T06:09:25.375Z,89.86
2022-12-07T06:10:25.328Z,89.48
2022-12-07T06:11:25.288Z,88.34
2022-12-07T06:12:25.251Z,88.15
2022-12-07T06:13:25.216Z,87.01
2022-12-07T06:14:25.169Z,86.82
2022-12-07T06:15:25.133Z,86.25
2022-12-07T06:16:25.135Z,85.30
2022-12-07T06:17:25.051Z,84.64
2022-12-07T06:18:25.010Z,84.17
2022-12-07T06:19:24.978Z,83.78
2022-12-07T06:20:24.935Z,83.40
2022-12-07T06:21:24.891Z,82.84
2022-12-07T06:22:24.854Z,82.84
2022-12-07T06:23:24.818Z,82.46
2022-12-07T06:24:24.778Z,82.27
2022-12-07T06:25:24.742Z,82.74
2022-12-07T06:26:24.699Z,82.17
2022-12-07T06:27:24.659Z,82.17
2022-12-07T06:28:24.639Z,82.36
2022-12-07T06:29:24.580Z,82.46
2022-12-07T06:30:24.544Z,82.93
2022-12-07T06:31:24.545Z,82.84
2022-12-07T06:32:24.465Z,82.55
2022-12-07T06:33:24.422Z,82.93
2022-12-07T06:34:24.387Z,82.55
2022-12-07T06:35:24.348Z,82.46
2022-12-07T06:36:27.270Z,82.65
2022-12-07T06:37:24.275Z,82.27
2022-12-07T06:38:24.231Z,82.93
2022-12-07T06:39:24.191Z,82.84
2022-12-07T06:40:24.151Z,83.40
2022-12-07T06:41:24.109Z,83.78
2022-12-07T06:42:24.071Z,83.97
2022-12-07T06:43:24.031Z,83.03
2022-12-07T06:44:23.989Z,82.84
2022-12-07T06:45:23.954Z,82.84
2022-12-07T06:46:23.941Z,82.84
2022-12-07T06:47:41.984Z,82.55
2022-12-07T06:48:23.832Z,83.03
2022-12-07T06:49:23.792Z,83.12
2022-12-07T06:50:23.754Z,83.22
2022-12-07T06:51:23.776Z,83.31
2022-12-07T06:52:23.675Z,83.22
2022-12-07T06:53:23.640Z,82.84
2022-12-07T06:54:23.594Z,83.03
2022-12-07T06:55:23.570Z,83.22
2022-12-07T06:56:23.520Z,83.22
2022-12-07T06:57:23.487Z,83.50
2022-12-07T06:58:23.440Z,83.40
2022-12-07T06:59:23.401Z,83.78
2022-12-07T07:00:23.361Z,84.45
2022-12-07T07:01:23.398Z,84.55
2022-12-07T07:02:23.374Z,85.02
2022-12-07T07:03:23.242Z,85.02
2022-12-07T07:04:23.203Z,85.21
2022-12-07T07:05:23.166Z,85.68
2022-12-07T07:06:23.122Z,85.59
2022-12-07T07:07:23.088Z,85.49
2022-12-07T07:08:23.822Z,85.30
2022-12-07T07:09:23.003Z,85.02
2022-12-07T07:10:22.969Z,85.21
2022-12-07T07:11:22.937Z,85.59
2022-12-07T07:12:22.891Z,85.49
2022-12-07T07:13:22.845Z,85.59
2022-12-07T07:14:22.809Z,86.35
2022-12-07T07:15:22.776Z,85.78
2022-12-07T07:16:22.800Z,85.78
2022-12-07T07:17:22.695Z,85.68
2022-12-07T07:18:22.656Z,85.49
2022-12-07T07:19:22.616Z,85.87
2022-12-07T07:20:22.580Z,85.78
2022-12-07T07:21:22.536Z,85.68
2022-12-07T07:22:22.490Z,85.59
2022-12-07T07:23:22.459Z,85.59
2022-12-07T07:24:22.424Z,85.78
2022-12-07T07:25:22.378Z,85.78
2022-12-07T07:26:23.372Z,85.68
2022-12-07T07:27:22.298Z,85.78
2022-12-07T07:28:22.260Z,86.35
2022-12-07T07:29:22.230Z,85.68
2022-12-07T07:30:22.187Z,85.78
2022-12-07T07:31:22.169Z,86.54
2022-12-07T07:32:22.107Z,85.97
2022-12-07T07:33:22.067Z,86.35
2022-12-07T07:34:22.034Z,86.63
2022-12-07T07:35:21.983Z,86.72
2022-12-07T07:36:21.945Z,87.01
2022-12-07T07:37:22.321Z,87.11
2022-12-07T07:38:21.867Z,87.20
2022-12-07T07:39:21.827Z,86.91
2022-12-07T07:40:21.787Z,86.82
2022-12-07T07:41:21.750Z,87.11
2022-12-07T07:42:21.757Z,86.63
2022-12-07T07:43:21.687Z,86.91
2022-12-07T07:44:21.630Z,86.91
2022-12-07T07:45:21.588Z,86.63
2022-12-07T07:46:21.596Z,86.63
2022-12-07T07:47:21.513Z,86.63
2022-12-07T07:48:21.479Z,87.49
2022-12-07T07:49:21.438Z,87.30
2022-12-07T07:50:21.396Z,87.39
2022-12-07T07:51:21.356Z,87.68
2022-12-07T07:52:21.318Z,87.49
2022-12-07T07:53:21.277Z,88.06
2022-12-07T07:54:21.238Z,88.34
2022-12-07T07:55:21.204Z,88.24
2022-12-07T07:56:21.161Z,88.24
2022-12-07T07:57:21.124Z,88.24
2022-12-07T07:58:21.077Z,88.06
2022-12-07T07:59:21.040Z,88.15
2022-12-07T08:00:21.004Z,88.53
2022-12-07T08:01:21.045Z,88.43
2022-12-07T08:02:20.932Z,88.24
2022-12-07T08:03:20.886Z,88.34
2022-12-07T08:04:20.890Z,87.87
2022-12-07T08:05:20.811Z,87.87
2022-12-07T08:06:20.765Z,87.87
2022-12-07T08:07:20.730Z,87.87
2022-12-07T08:08:20.740Z,87.87
2022-12-07T08:09:20.651Z,88.15
2022-12-07T08:10:20.611Z,87.58
2022-12-07T08:11:20.585Z,88.06
2022-12-07T08:12:20.531Z,87.16
2022-12-07T08:13:20.500Z,86.82
2022-12-07T08:14:20.475Z,87.11
2022-12-07T08:15:20.412Z,87.11
2022-12-07T08:16:20.439Z,87.68
2022-12-07T08:17:20.338Z,87.96
2022-12-07T08:18:20.295Z,88.24
2022-12-07T08:19:20.263Z,88.53
2022-12-07T08:20:20.221Z,87.96
2022-12-07T08:21:20.181Z,87.96
2022-12-07T08:22:20.136Z,88.34
2022-12-07T08:23:22.260Z,87.96
2022-12-07T08:24:20.057Z,87.49
2022-12-07T08:25:20.021Z,87.39
2022-12-07T08:26:19.977Z,87.68
2022-12-07T08:27:19.944Z,87.96
2022-12-07T08:28:19.912Z,87.87
2022-12-07T08:29:19.863Z,87.49
2022-12-07T08:30:19.828Z,87.68
2022-12-07T08:31:19.860Z,87.20
2022-12-07T08:32:19.764Z,87.68
2022-12-07T08:33:19.715Z,86.82
2022-12-07T08:34:19.666Z,86.91
2022-12-07T08:35:19.629Z,87.58
2022-12-07T08:36:19.587Z,87.39
2022-12-07T08:37:19.551Z,87.82
2022-12-07T08:38:19.514Z,88.62
2022-12-07T08:39:34.913Z,87.96
2022-12-07T08:40:19.433Z,88.15
2022-12-07T08:41:19.394Z,88.20
2022-12-07T08:42:19.354Z,88.67
2022-12-07T08:43:19.320Z,89.10
2022-12-07T08:44:19.283Z,88.81
2022-12-07T08:45:24.978Z,88.06
2022-12-07T08:46:19.281Z,88.81
2022-12-07T08:47:19.159Z,88.91
2022-12-07T08:48:19.121Z,88.06
2022-12-07T08:49:19.084Z,89.00
2022-12-07T08:50:19.045Z,89.00
2022-12-07T08:51:19.001Z,89.00
2022-12-07T08:52:18.968Z,88.53
2022-12-07T08:53:18.942Z,88.06
2022-12-07T08:54:18.883Z,88.24
2022-12-07T08:55:18.847Z,89.10
2022-12-07T08:56:18.804Z,89.33
2022-12-07T08:57:18.769Z,89.72
2022-12-07T08:58:18.724Z,89.62
2022-12-07T08:59:18.700Z,89.72
2022-12-07T09:00:18.649Z,90.28
2022-12-07T09:01:18.664Z,90.09
2022-12-07T09:02:18.570Z,89.72
2022-12-07T09:03:18.533Z,89.81
2022-12-07T09:04:18.541Z,89.72
2022-12-07T09:05:18.458Z,89.90
2022-12-07T09:06:18.602Z,89.90
2022-12-07T09:07:18.418Z,90.00
2022-12-07T09:08:18.392Z,90.38
2022-12-07T09:09:18.306Z,90.38
2022-12-07T09:10:18.261Z,90.28
2022-12-07T09:11:18.222Z,90.66
2022-12-07T09:12:18.183Z,90.85
2022-12-07T09:13:18.153Z,91.14
2022-12-07T09:14:18.106Z,91.04
2022-12-07T09:15:18.111Z,91.24
2022-12-07T09:16:18.085Z,92.37
2022-12-07T09:17:17.989Z,92.28
2022-12-07T09:18:17.947Z,93.04
2022-12-07T09:19:17.913Z,93.32
2022-12-07T09:20:18.798Z,93.51
2022-12-07T09:21:17.832Z,93.32
2022-12-07T09:22:17.793Z,93.04
2022-12-07T09:23:17.766Z,92.56
2022-12-07T09:24:17.720Z,93.13
2022-12-07T09:25:17.677Z,93.23
2022-12-07T09:26:17.635Z,93.32
2022-12-07T09:27:17.604Z,93.99
2022-12-07T09:28:17.560Z,93.89
2022-12-07T09:29:17.524Z,93.70
2022-12-07T09:30:17.483Z,94.18
2022-12-07T09:31:25.890Z,94.42
2022-12-07T09:32:17.439Z,94.42
2022-12-07T09:33:17.367Z,94.46
2022-12-07T09:34:17.371Z,94.65
2022-12-07T09:35:17.289Z,94.89
2022-12-07T09:36:17.251Z,94.74
2022-12-07T09:37:17.216Z,94.89
2022-12-07T09:38:17.172Z,95.98
2022-12-07T09:39:17.132Z,95.08
2022-12-07T09:40:17.095Z,95.55
2022-12-07T09:41:17.061Z,95.51
2022-12-07T09:42:17.018Z,95.79
2022-12-07T09:43:17.051Z,95.75
2022-12-07T09:44:16.941Z,95.36
2022-12-07T09:45:16.903Z,95.27
2022-12-07T09:46:16.951Z,96.50
2022-12-07T09:47:16.830Z,95.65
2022-12-07T09:48:16.793Z,95.65
2022-12-07T09:49:16.750Z,95.36
2022-12-07T09:50:16.710Z,96.22
2022-12-07T09:51:21.149Z,96.50
2022-12-07T09:52:16.624Z,96.50
2022-12-07T09:53:16.591Z,96.36
2022-12-07T09:54:16.557Z,96.69
2022-12-07T09:55:16.522Z,96.41
2022-12-07T09:56:16.491Z,96.31
2022-12-07T09:57:16.436Z,96.41
2022-12-07T09:58:16.402Z,96.41
2022-12-07T09:59:16.366Z,96.60
2022-12-07T10:00:16.322Z,96.79
2022-12-07T10:01:16.320Z,97.55
2022-12-07T10:02:16.311Z,97.74
2022-12-07T10:03:16.211Z,97.74
2022-12-07T10:04:16.207Z,97.55
2022-12-07T10:05:22.112Z,96.98
2022-12-07T10:06:16.095Z,97.36
2022-12-07T10:07:16.051Z,97.74
2022-12-07T10:08:16.063Z,97.74
2022-12-07T10:09:16.026Z,97.74
2022-12-07T10:10:15.939Z,97.64
2022-12-07T10:11:15.923Z,97.27
2022-12-07T10:12:15.859Z,97.83
2022-12-07T10:13:15.834Z,98.50
2022-12-07T10:14:15.875Z,97.45
2022-12-07T10:15:15.740Z,97.74
2022-12-07T10:16:15.768Z,97.36
2022-12-07T10:17:15.672Z,97.74
2022-12-07T10:18:15.628Z,98.21
2022-12-07T10:19:15.709Z,97.36
2022-12-07T10:20:15.578Z,97.27
2022-12-07T10:21:15.518Z,97.92
2022-12-07T10:22:15.480Z,97.92
2022-12-07T10:23:15.434Z,98.12
2022-12-07T10:24:15.412Z,96.88
2022-12-07T10:25:15.362Z,97.64
2022-12-07T10:26:15.322Z,98.40
2022-12-07T10:27:15.284Z,98.50
2022-12-07T10:28:15.243Z,98.12
2022-12-07T10:29:15.208Z,98.69
2022-12-07T10:30:15.166Z,98.31
2022-12-07T10:31:15.177Z,97.45
2022-12-07T10:32:15.092Z,98.21
2022-12-07T10:33:15.052Z,98.02
2022-12-07T10:34:15.019Z,98.40
2022-12-07T10:35:14.975Z,98.31
2022-12-07T10:36:14.938Z,98.26
2022-12-07T10:37:14.901Z,98.88
2022-12-07T10:38:14.863Z,98.26
2022-12-07T10:39:14.819Z,98.17
2022-12-07T10:40:14.782Z,98.12
2022-12-07T10:41:14.748Z,98.40
2022-12-07T10:42:14.710Z,98.21
2022-12-07T10:43:14.667Z,98.21
2022-12-07T10:44:14.639Z,98.31
2022-12-07T10:45:14.682Z,98.74
2022-12-07T10:46:15.231Z,99.30
2022-12-07T10:47:14.574Z,99.59
2022-12-07T10:48:14.480Z,99.21
2022-12-07T10:49:14.441Z,98.93
2022-12-07T10:50:14.406Z,99.21
2022-12-07T10:51:14.384Z,99.30
2022-12-07T10:52:14.331Z,99.30
2022-12-07T10:53:14.288Z,99.07
2022-12-07T10:54:14.249Z,99.74
2022-12-07T10:55:14.235Z,99.84
2022-12-07T10:56:14.225Z,99.97
2022-12-07T10:57:14.136Z,99.26
2022-12-07T10:58:14.097Z,98.93
2022-12-07T10:59:14.060Z,99.55
2022-12-07T11:00:14.026Z,99.74
2022-12-07T11:01:14.024Z,99.64
2022-12-07T11:02:18.976Z,99.84
2022-12-07T11:03:13.909Z,99.36
2022-12-07T11:04:13.883Z,99.74
2022-12-07T11:05:13.829Z,99.78
2022-12-07T11:06:13.793Z,99.59
2022-12-07T11:07:13.760Z,99.59
2022-12-07T11:08:13.763Z,99.45
2022-12-07T11:09:13.683Z,99.55
2022-12-07T11:10:13.644Z,99.69
2022-12-07T11:11:13.608Z,99.99
2022-12-07T11:12:13.567Z,99.99
2022-12-07T11:13:13.539Z,99.59
2022-12-07T11:14:13.493Z,99.40
2022-12-07T11:15:13.465Z,99.59
2022-12-07T11:16:13.451Z,99.88
2022-12-07T11:17:13.398Z,99.88
2022-12-07T11:18:13.374Z,99.99
2022-12-07T11:19:13.309Z,99.78
2022-12-07T11:20:13.266Z,99.78
2022-12-07T11:21:13.232Z,99.69
2022-12-07T11:22:13.192Z,99.78
2022-12-07T11:23:13.174Z,99.73
2022-12-07T11:24:13.126Z,99.99
2022-12-07T11:25:13.081Z,99.54
2022-12-07T11:26:13.039Z,99.59
2022-12-07T11:27:12.999Z,99.97
2022-12-07T11:28:12.985Z,99.64
2022-12-07T11:29:12.931Z,99.73
2022-12-07T11:30:12.886Z,99.54
2022-12-07T11:31:12.900Z,99.78
2022-12-07T11:32:12.889Z,99.69
2022-12-07T11:33:12.776Z,99.78
2022-12-07T11:34:12.763Z,99.59
2022-12-07T11:35:12.712Z,99.78
2022-12-07T11:36:12.676Z,99.99
2022-12-07T11:37:12.622Z,99.97
2022-12-07T11:38:12.581Z,99.73
2022-12-07T11:39:12.547Z,99.35
2022-12-07T11:40:12.507Z,99.64
2022-12-07T11:41:12.473Z,99.92
2022-12-07T11:42:12.438Z,99.99
2022-12-07T11:43:12.395Z,99.69
2022-12-07T11:44:12.358Z,99.69
2022-12-07T11:45:12.318Z,99.92
2022-12-07T11:46:12.329Z,99.92
2022-12-07T11:47:12.319Z,99.92
2022-12-07T11:48:12.200Z,99.26
2022-12-07T11:49:12.298Z,99.99
2022-12-07T11:50:12.124Z,99.99
2022-12-07T11:51:12.088Z,99.99
2022-12-07T11:52:12.046Z,99.92
2022-12-07T11:53:12.008Z,99.83
2022-12-07T11:54:11.974Z,99.44
2022-12-07T11:55:11.938Z,99.92
2022-12-07T11:56:11.898Z,99.83
2022-12-07T11:57:16.842Z,99.73
2022-12-07T11:58:11.816Z,99.54
2022-12-07T11:59:11.779Z,99.92
2022-12-07T12:00:11.774Z,99.99
2022-12-07T12:01:11.707Z,99.73
2022-12-07T12:02:11.713Z,99.99
2022-12-07T12:03:11.685Z,99.99
2022-12-07T12:04:11.596Z,99.73
2022-12-07T12:05:11.556Z,99.99
2022-12-07T12:06:11.522Z,99.92
2022-12-07T12:10:11.359Z,99.64
2022-12-07T12:11:11.322Z,99.73
2022-12-07T12:15:11.166Z,99.44
2022-12-07T12:16:11.160Z,99.64
2022-12-07T12:17:11.092Z,99.73
2022-12-07T12:18:11.053Z,99.35
2022-12-07T12:19:11.039Z,99.64
2022-12-07T12:20:11.005Z,99.83
2022-12-07T12:21:10.947Z,99.64
2022-12-07T12:22:10.893Z,99.73
2022-12-07T12:23:10.863Z,99.44
2022-12-07T12:24:10.820Z,99.16
2022-12-07T12:25:10.788Z,99.44
2022-12-07T12:26:10.827Z,99.83
2022-12-07T12:27:10.711Z,99.92
2022-12-07T12:28:10.673Z,99.54
2022-12-07T12:29:10.638Z,99.64
2022-12-07T12:30:10.592Z,99.92
2022-12-07T12:31:10.557Z,99.59
2022-12-07T12:32:10.528Z,99.16
2022-12-07T12:33:10.482Z,99.88
2022-12-07T12:34:10.435Z,99.64
2022-12-07T12:35:10.400Z,99.73
2022-12-07T12:36:10.529Z,99.97
2022-12-07T12:37:10.328Z,99.99
2022-12-07T12:38:10.312Z,99.78
2022-12-07T12:39:10.248Z,99.97
2022-12-07T12:40:10.208Z,99.50
2022-12-07T12:41:10.178Z,99.97
2022-12-07T12:42:10.154Z,99.88
2022-12-07T12:43:10.109Z,99.69
2022-12-07T12:44:10.060Z,99.69
2022-12-07T12:45:10.016Z,99.59
2022-12-07T12:46:10.010Z,99.78
2022-12-07T12:47:09.951Z,99.99
2022-12-07T12:48:09.919Z,99.99
2022-12-07T12:49:09.868Z,99.69
2022-12-07T12:50:09.826Z,99.78
2022-12-07T12:51:09.788Z,99.99
2022-12-07T12:52:09.753Z,99.59
2022-12-07T12:53:09.732Z,99.40
2022-12-07T12:54:09.683Z,99.59
2022-12-07T12:55:09.633Z,99.99
2022-12-07T12:56:09.602Z,99.97
2022-12-07T12:57:09.555Z,99.78
2022-12-07T12:58:09.524Z,99.50